createdAt,value
2018-12-20T00:00:15.640Z,2.89
2018-12-20T00:01:15.503Z,2.89
2018-12-20T00:03:10.355Z,2.85
2018-12-20T00:04:10.435Z,2.82
2018-12-20T00:06:05.206Z,2.81
2018-12-20T00:07:05.200Z,2.79
2018-12-20T00:09:00.016Z,2.84
2018-12-20T00:10:00.106Z,2.84
2018-12-20T00:11:54.917Z,2.79
2018-12-20T00:12:54.808Z,2.89
2018-12-20T00:14:51.167Z,2.95
2018-12-20T00:15:51.164Z,2.89
2018-12-20T00:17:46.494Z,2.89
2018-12-20T00:18:46.469Z,2.95
2018-12-20T00:20:41.339Z,3.00
2018-12-20T00:21:41.289Z,3.02
2018-12-20T00:23:36.154Z,2.99
2018-12-20T00:24:36.143Z,3.02
2018-12-20T00:26:31.473Z,3.02
2018-12-20T00:27:30.945Z,3.05
2018-12-20T00:29:25.355Z,3.00
2018-12-20T00:30:25.308Z,3.00
2018-12-20T00:32:20.170Z,2.99
2018-12-20T00:33:20.414Z,3.03
2018-12-20T00:35:15.074Z,3.05
2018-12-20T00:36:14.976Z,3.00
2018-12-20T00:38:09.541Z,3.02
2018-12-20T00:39:09.416Z,2.97
2018-12-20T00:41:04.355Z,2.97
2018-12-20T00:42:04.311Z,2.84
2018-12-20T00:43:59.315Z,2.92
2018-12-20T00:44:59.122Z,2.84
2018-12-20T00:46:54.065Z,2.93
2018-12-20T00:47:53.931Z,2.89
2018-12-20T00:49:49.021Z,2.90
2018-12-20T00:50:48.972Z,2.99
2018-12-20T00:51:48.993Z,2.96
2018-12-20T00:52:48.952Z,2.99
2018-12-20T00:53:48.911Z,2.96
2018-12-20T00:54:48.894Z,3.00
2018-12-20T00:55:48.890Z,2.96
2018-12-20T00:56:48.862Z,3.06
2018-12-20T00:57:48.852Z,3.00
2018-12-20T00:58:48.859Z,3.00
2018-12-20T00:59:48.814Z,2.93
2018-12-20T01:00:48.826Z,2.96
2018-12-20T01:01:48.770Z,2.95
2018-12-20T01:02:55.031Z,2.96
2018-12-20T01:03:48.809Z,2.82
2018-12-20T01:04:48.727Z,2.81
2018-12-20T01:05:48.779Z,2.79
2018-12-20T01:06:48.701Z,2.82
2018-12-20T01:07:48.828Z,2.87
2018-12-20T01:08:48.689Z,2.81
2018-12-20T01:09:48.642Z,2.79
2018-12-20T01:10:48.627Z,2.81
2018-12-20T01:11:48.608Z,2.74
2018-12-20T01:12:48.603Z,2.75
2018-12-20T01:13:48.570Z,2.77
2018-12-20T01:14:48.752Z,2.79
2018-12-20T01:15:48.700Z,2.79
2018-12-20T01:16:48.517Z,2.79
2018-12-20T01:17:48.590Z,2.79
2018-12-20T01:18:48.506Z,2.79
2018-12-20T01:19:48.651Z,2.74
2018-12-20T01:20:48.450Z,2.92
2018-12-20T01:21:48.556Z,2.85
2018-12-20T01:22:48.414Z,2.81
2018-12-20T01:23:48.398Z,2.77
2018-12-20T01:24:48.379Z,2.81
2018-12-20T01:25:48.361Z,2.87
2018-12-20T01:26:48.492Z,2.82
2018-12-20T01:27:48.344Z,2.79
2018-12-20T01:28:48.318Z,2.85
2018-12-20T01:29:48.376Z,2.87
2018-12-20T01:30:48.275Z,2.89
2018-12-20T01:31:48.367Z,2.84
2018-12-20T01:32:48.361Z,2.84
2018-12-20T01:33:48.230Z,2.93
2018-12-20T01:34:48.364Z,2.97
2018-12-20T01:35:48.257Z,2.90
2018-12-20T01:36:48.361Z,2.92
2018-12-20T01:37:48.249Z,2.99
2018-12-20T01:38:48.308Z,2.95
2018-12-20T01:39:48.125Z,2.96
2018-12-20T01:40:48.147Z,2.97
2018-12-20T01:41:48.110Z,2.93
2018-12-20T01:42:48.074Z,2.96
2018-12-20T01:43:48.065Z,2.95
2018-12-20T01:44:53.434Z,2.84
2018-12-20T01:45:48.027Z,2.96
2018-12-20T01:46:48.005Z,2.84
2018-12-20T01:47:47.989Z,2.87
2018-12-20T01:48:47.982Z,2.87
2018-12-20T01:49:47.980Z,2.84
2018-12-20T01:50:48.118Z,2.84
2018-12-20T01:51:47.922Z,2.89
2018-12-20T01:52:48.001Z,2.93
2018-12-20T01:53:47.888Z,2.87
2018-12-20T01:54:47.870Z,2.84
2018-12-20T01:55:47.888Z,2.84
2018-12-20T01:56:47.940Z,2.84
2018-12-20T01:57:47.876Z,2.82
2018-12-20T01:58:47.794Z,2.84
2018-12-20T01:59:47.809Z,2.82
2018-12-20T02:00:47.855Z,2.81
2018-12-20T02:01:47.866Z,2.79
2018-12-20T02:02:47.739Z,2.81
2018-12-20T02:03:47.974Z,2.75
2018-12-20T02:04:47.689Z,2.75
2018-12-20T02:05:47.724Z,2.81
2018-12-20T02:06:47.780Z,2.72
2018-12-20T02:07:47.645Z,2.79
2018-12-20T02:08:47.633Z,2.74
2018-12-20T02:09:47.643Z,2.75
2018-12-20T02:10:47.729Z,2.81
2018-12-20T02:11:47.767Z,2.81
2018-12-20T02:12:47.577Z,2.71
2018-12-20T02:13:47.708Z,2.72
2018-12-20T02:14:47.528Z,2.77
2018-12-20T02:15:47.501Z,2.75
2018-12-20T02:16:47.503Z,2.77
2018-12-20T02:17:47.586Z,2.75
2018-12-20T02:18:47.463Z,2.81
2018-12-20T02:19:47.569Z,2.89
2018-12-20T02:20:47.420Z,2.79
2018-12-20T02:21:47.435Z,2.89
2018-12-20T02:22:47.388Z,2.84
2018-12-20T02:23:47.375Z,2.89
2018-12-20T02:24:47.392Z,2.84
2018-12-20T02:25:47.332Z,2.90
2018-12-20T02:26:47.319Z,2.90
2018-12-20T02:27:47.311Z,2.93
2018-12-20T02:28:47.437Z,2.90
2018-12-20T02:29:47.270Z,2.93
2018-12-20T02:30:47.253Z,2.92
2018-12-20T02:31:47.234Z,2.95
2018-12-20T02:32:47.238Z,2.93
2018-12-20T02:33:47.356Z,2.82
2018-12-20T02:34:47.176Z,2.89
2018-12-20T02:35:47.221Z,2.89
2018-12-20T02:36:47.277Z,2.93
2018-12-20T02:37:47.124Z,2.82
2018-12-20T02:38:47.123Z,2.85
2018-12-20T02:39:47.095Z,2.90
2018-12-20T02:40:47.079Z,2.84
2018-12-20T02:41:47.312Z,2.92
2018-12-20T02:42:47.049Z,2.87
2018-12-20T02:43:47.022Z,2.82
2018-12-20T02:44:47.017Z,2.89
2018-12-20T02:45:47.024Z,3.00
2018-12-20T02:46:47.179Z,2.90
2018-12-20T02:47:47.287Z,2.95
2018-12-20T02:48:47.112Z,2.92
2018-12-20T02:49:47.110Z,2.95
2018-12-20T02:50:47.003Z,2.95
2018-12-20T02:51:46.892Z,2.95
2018-12-20T02:52:46.872Z,2.93
2018-12-20T02:53:46.904Z,2.97
2018-12-20T02:54:46.842Z,2.92
2018-12-20T02:55:46.958Z,2.93
2018-12-20T02:56:46.809Z,2.99
2018-12-20T02:57:47.106Z,2.99
2018-12-20T02:58:46.770Z,2.84
2018-12-20T02:59:46.782Z,2.95
2018-12-20T03:00:46.742Z,2.82
2018-12-20T03:01:46.731Z,2.82
2018-12-20T03:02:46.712Z,2.92
2018-12-20T03:03:46.781Z,2.85
2018-12-20T03:04:46.690Z,2.78
2018-12-20T03:05:46.810Z,2.81
2018-12-20T03:06:46.652Z,2.77
2018-12-20T03:07:46.819Z,2.78
2018-12-20T03:08:46.613Z,2.75
2018-12-20T03:09:46.617Z,2.75
2018-12-20T03:10:46.602Z,2.71
2018-12-20T03:11:46.561Z,2.72
2018-12-20T03:12:46.560Z,2.75
2018-12-20T03:13:46.513Z,2.72
2018-12-20T03:14:46.504Z,2.69
2018-12-20T03:15:46.509Z,2.71
2018-12-20T03:16:46.471Z,2.61
2018-12-20T03:17:46.529Z,2.57
2018-12-20T03:18:46.504Z,2.66
2018-12-20T03:19:46.413Z,2.59
2018-12-20T03:20:46.439Z,2.56
2018-12-20T03:21:46.532Z,2.53
2018-12-20T03:22:46.688Z,2.56
2018-12-20T03:23:46.342Z,2.54
2018-12-20T03:24:46.515Z,2.45
2018-12-20T03:25:46.443Z,2.39
2018-12-20T03:26:46.535Z,2.42
2018-12-20T03:27:46.355Z,2.30
2018-12-20T03:28:46.364Z,2.36
2018-12-20T03:29:46.562Z,2.27
2018-12-20T03:30:46.233Z,2.18
2018-12-20T03:31:46.205Z,2.21
2018-12-20T03:32:46.488Z,2.21
2018-12-20T03:33:46.550Z,2.16
2018-12-20T03:34:46.309Z,2.18
2018-12-20T03:35:46.276Z,2.16
2018-12-20T03:36:46.135Z,2.14
2018-12-20T03:37:46.101Z,2.17
2018-12-20T03:38:46.100Z,2.12
2018-12-20T03:39:46.096Z,2.07
2018-12-20T03:40:46.047Z,2.16
2018-12-20T03:41:46.037Z,2.16
2018-12-20T03:42:46.047Z,2.10
2018-12-20T03:43:45.995Z,2.05
2018-12-20T03:44:46.093Z,2.07
2018-12-20T03:45:46.220Z,2.03
2018-12-20T03:46:45.954Z,2.02
2018-12-20T03:47:45.918Z,2.07
2018-12-20T03:48:46.016Z,2.00
2018-12-20T03:49:46.074Z,2.07
2018-12-20T03:50:45.895Z,2.05
2018-12-20T03:51:45.917Z,1.99
2018-12-20T03:52:45.881Z,2.02
2018-12-20T03:53:45.816Z,1.93
2018-12-20T03:54:45.802Z,1.91
2018-12-20T03:55:45.867Z,1.86
2018-12-20T03:56:45.964Z,1.81
2018-12-20T03:57:45.754Z,1.84
2018-12-20T03:58:45.778Z,1.88
2018-12-20T03:59:45.766Z,1.81
2018-12-20T04:00:45.693Z,1.77
2018-12-20T04:01:45.680Z,1.86
2018-12-20T04:02:45.654Z,1.79
2018-12-20T04:03:45.873Z,1.84
2018-12-20T04:04:45.624Z,1.73
2018-12-20T04:05:45.760Z,1.70
2018-12-20T04:06:45.594Z,1.77
2018-12-20T04:07:45.627Z,1.77
2018-12-20T04:08:45.554Z,1.69
2018-12-20T04:09:45.616Z,1.68
2018-12-20T04:10:45.533Z,1.63
2018-12-20T04:11:45.504Z,1.66
2018-12-20T04:12:45.534Z,1.58
2018-12-20T04:13:45.515Z,1.63
2018-12-20T04:14:45.639Z,1.70
2018-12-20T04:15:45.682Z,1.66
2018-12-20T04:16:45.455Z,1.69
2018-12-20T04:17:45.586Z,1.69
2018-12-20T04:18:45.384Z,1.72
2018-12-20T04:19:45.362Z,1.70
2018-12-20T04:20:45.548Z,1.80
2018-12-20T04:21:45.581Z,1.72
2018-12-20T04:22:45.424Z,1.79
2018-12-20T04:23:45.290Z,1.66
2018-12-20T04:24:45.348Z,1.77
2018-12-20T04:25:45.328Z,1.65
2018-12-20T04:26:45.233Z,1.76
2018-12-20T04:27:45.346Z,1.72
2018-12-20T04:28:45.197Z,1.70
2018-12-20T04:29:45.429Z,1.66
2018-12-20T04:30:45.168Z,1.76
2018-12-20T04:31:45.374Z,1.72
2018-12-20T04:32:45.126Z,1.84
2018-12-20T04:33:45.123Z,1.77
2018-12-20T04:34:45.285Z,1.81
2018-12-20T04:35:45.243Z,1.83
2018-12-20T04:36:45.051Z,1.72
2018-12-20T04:37:45.248Z,1.72
2018-12-20T04:38:45.022Z,1.83
2018-12-20T04:39:45.103Z,1.87
2018-12-20T04:40:45.022Z,1.83
2018-12-20T04:41:45.172Z,1.83
2018-12-20T04:42:44.957Z,1.83
2018-12-20T04:43:45.029Z,1.86
2018-12-20T04:44:45.165Z,1.86
2018-12-20T04:45:46.840Z,1.86
2018-12-20T04:46:44.880Z,1.90
2018-12-20T04:47:44.916Z,1.81
2018-12-20T04:48:45.035Z,1.95
2018-12-20T04:49:45.134Z,2.00
2018-12-20T04:50:45.110Z,2.06
2018-12-20T04:51:44.790Z,1.98
2018-12-20T04:52:44.804Z,2.02
2018-12-20T04:53:44.757Z,2.02
2018-12-20T04:54:44.937Z,2.00
2018-12-20T04:55:44.717Z,2.05
2018-12-20T04:56:44.793Z,2.06
2018-12-20T04:57:44.688Z,2.09
2018-12-20T04:58:44.707Z,2.06
2018-12-20T04:59:44.854Z,2.12
2018-12-20T05:00:44.628Z,2.14
2018-12-20T05:01:44.800Z,2.12
2018-12-20T05:02:44.595Z,2.17
2018-12-20T05:03:44.805Z,2.17
2018-12-20T05:04:44.614Z,2.25
2018-12-20T05:05:44.539Z,2.21
2018-12-20T05:06:44.625Z,2.28
2018-12-20T05:07:44.500Z,2.28
2018-12-20T05:08:44.620Z,2.18
2018-12-20T05:09:44.467Z,2.14
2018-12-20T05:10:44.456Z,2.10
2018-12-20T05:11:44.428Z,2.09
2018-12-20T05:12:44.479Z,2.02
2018-12-20T05:13:44.515Z,2.00
2018-12-20T05:14:44.468Z,2.02
2018-12-20T05:15:44.358Z,1.99
2018-12-20T05:16:44.345Z,1.98
2018-12-20T05:17:44.568Z,2.05
2018-12-20T05:18:44.318Z,1.98
2018-12-20T05:19:44.464Z,2.02
2018-12-20T05:20:44.424Z,2.00
2018-12-20T05:21:44.258Z,2.05
2018-12-20T05:22:44.530Z,1.98
2018-12-20T05:23:44.229Z,2.02
2018-12-20T05:24:44.341Z,2.05
2018-12-20T05:25:44.182Z,2.07
2018-12-20T05:26:44.203Z,2.06
2018-12-20T05:27:44.294Z,2.03
2018-12-20T05:28:44.152Z,2.00
2018-12-20T05:29:44.115Z,2.09
2018-12-20T05:30:44.305Z,2.17
2018-12-20T05:31:44.313Z,2.14
2018-12-20T05:32:44.063Z,2.14
2018-12-20T05:33:44.249Z,2.24
2018-12-20T05:34:44.276Z,2.25
2018-12-20T05:35:44.051Z,2.21
2018-12-20T05:36:44.120Z,2.16
2018-12-20T05:37:44.039Z,2.16
2018-12-20T05:38:44.283Z,2.09
2018-12-20T05:39:44.080Z,2.14
2018-12-20T05:40:43.937Z,2.03
2018-12-20T05:41:43.906Z,2.09
2018-12-20T05:42:44.051Z,2.00
2018-12-20T05:43:43.869Z,2.00
2018-12-20T05:44:43.894Z,2.02
2018-12-20T05:45:43.833Z,1.90
2018-12-20T05:46:43.811Z,1.88
2018-12-20T05:47:43.787Z,1.90
2018-12-20T05:48:43.806Z,1.80
2018-12-20T05:49:43.749Z,1.80
2018-12-20T05:50:43.734Z,1.87
2018-12-20T05:51:43.723Z,2.28
2018-12-20T05:52:43.699Z,2.66
2018-12-20T05:53:43.685Z,2.64
2018-12-20T05:54:43.872Z,2.53
2018-12-20T05:55:43.923Z,2.57
2018-12-20T05:56:43.642Z,2.38
2018-12-20T05:57:43.705Z,2.30
2018-12-20T05:58:44.587Z,2.34
2018-12-20T05:59:43.585Z,2.21
2018-12-20T06:00:43.562Z,2.21
2018-12-20T06:01:43.595Z,2.10
2018-12-20T06:02:43.737Z,2.06
2018-12-20T06:03:43.508Z,2.03
2018-12-20T06:04:43.669Z,1.99
2018-12-20T06:05:43.468Z,1.98
2018-12-20T06:06:43.458Z,1.98
2018-12-20T06:07:43.433Z,1.90
2018-12-20T06:08:43.418Z,1.87
2018-12-20T06:09:43.590Z,1.88
2018-12-20T06:10:43.513Z,1.84
2018-12-20T06:11:43.549Z,1.83
2018-12-20T06:12:43.352Z,1.90
2018-12-20T06:13:43.364Z,1.80
2018-12-20T06:14:43.456Z,1.77
2018-12-20T06:15:43.403Z,1.84
2018-12-20T06:16:43.276Z,1.83
2018-12-20T06:17:43.254Z,1.72
2018-12-20T06:18:43.238Z,1.86
2018-12-20T06:19:43.279Z,1.77
2018-12-20T06:20:43.202Z,1.72
2018-12-20T06:21:43.190Z,1.77
2018-12-20T06:22:43.160Z,1.84
2018-12-20T06:23:43.154Z,1.72
2018-12-20T06:24:43.138Z,1.65
2018-12-20T06:25:43.120Z,1.69
2018-12-20T06:26:43.094Z,1.72
2018-12-20T06:27:43.088Z,1.69
2018-12-20T06:28:43.059Z,1.58
2018-12-20T06:29:43.042Z,1.58
2018-12-20T06:30:43.022Z,1.69
2018-12-20T06:31:43.009Z,1.69
2018-12-20T06:32:42.989Z,1.66
2018-12-20T06:33:42.965Z,1.55
2018-12-20T06:34:42.958Z,1.60
2018-12-20T06:35:42.939Z,1.60
2018-12-20T06:36:42.912Z,1.51
2018-12-20T06:37:42.898Z,1.54
2018-12-20T06:38:42.882Z,1.55
2018-12-20T06:39:42.866Z,1.51
2018-12-20T06:40:42.843Z,1.44
2018-12-20T06:41:42.831Z,1.48
2018-12-20T06:42:42.807Z,1.50
2018-12-20T06:43:42.793Z,1.48
2018-12-20T06:44:42.770Z,1.47
2018-12-20T06:45:42.756Z,1.42
2018-12-20T06:46:42.742Z,1.44
2018-12-20T06:47:42.720Z,1.32
2018-12-20T06:48:42.719Z,1.30
2018-12-20T06:49:42.680Z,1.27
2018-12-20T06:50:42.665Z,1.22
2018-12-20T06:51:42.642Z,1.18
2018-12-20T06:52:42.640Z,1.23
2018-12-20T06:53:42.611Z,1.27
2018-12-20T06:54:42.595Z,1.23
2018-12-20T06:55:42.570Z,1.24
2018-12-20T06:56:42.570Z,1.26
2018-12-20T06:57:42.535Z,1.23
2018-12-20T06:58:42.527Z,1.20
2018-12-20T06:59:42.509Z,1.24
2018-12-20T07:00:42.484Z,1.23
2018-12-20T07:01:42.462Z,1.30
2018-12-20T07:02:42.448Z,1.22
2018-12-20T07:03:42.432Z,1.22
2018-12-20T07:04:42.414Z,1.20
2018-12-20T07:05:42.399Z,1.24
2018-12-20T07:06:42.381Z,1.26
2018-12-20T07:07:42.358Z,1.29
2018-12-20T07:08:42.342Z,1.36
2018-12-20T07:09:42.342Z,1.36
2018-12-20T07:10:42.310Z,1.26
2018-12-20T07:11:42.299Z,1.36
2018-12-20T07:12:42.275Z,1.36
2018-12-20T07:13:42.251Z,1.37
2018-12-20T07:14:42.232Z,1.34
2018-12-20T07:15:42.213Z,1.37
2018-12-20T07:16:42.197Z,1.36
2018-12-20T07:17:42.177Z,1.34
2018-12-20T07:18:42.160Z,1.36
2018-12-20T07:19:42.151Z,1.33
2018-12-20T07:20:42.119Z,1.37
2018-12-20T07:21:42.118Z,1.44
2018-12-20T07:22:42.086Z,1.41
2018-12-20T07:23:42.082Z,1.47
2018-12-20T07:24:42.046Z,1.48
2018-12-20T07:25:42.037Z,1.55
2018-12-20T07:26:42.019Z,1.52
2018-12-20T07:27:41.997Z,1.54
2018-12-20T07:28:41.981Z,1.70
2018-12-20T07:29:41.962Z,1.63
2018-12-20T07:30:41.944Z,1.72
2018-12-20T07:31:41.931Z,1.58
2018-12-20T07:32:41.928Z,1.58
2018-12-20T07:33:41.887Z,1.70
2018-12-20T07:34:47.838Z,1.70
2018-12-20T07:35:41.848Z,1.73
2018-12-20T07:36:41.847Z,1.63
2018-12-20T07:37:41.820Z,1.59
2018-12-20T07:38:41.800Z,1.52
2018-12-20T07:39:41.780Z,1.45
2018-12-20T07:40:41.765Z,1.44
2018-12-20T07:41:41.739Z,1.51
2018-12-20T07:42:41.749Z,1.44
2018-12-20T07:43:41.708Z,1.44
2018-12-20T07:44:48.389Z,1.45
2018-12-20T07:45:41.670Z,1.47
2018-12-20T07:46:41.653Z,1.52
2018-12-20T07:47:41.636Z,1.58
2018-12-20T07:48:41.622Z,1.59
2018-12-20T07:49:41.605Z,1.69
2018-12-20T07:50:41.586Z,1.72
2018-12-20T07:51:41.573Z,1.73
2018-12-20T07:52:41.544Z,1.68
2018-12-20T07:53:41.524Z,1.65
2018-12-20T07:54:41.518Z,1.66
2018-12-20T07:55:41.494Z,1.59
2018-12-20T07:56:41.494Z,1.66
2018-12-20T07:57:41.457Z,1.69
2018-12-20T07:58:41.442Z,1.63
2018-12-20T07:59:41.422Z,1.60
2018-12-20T08:00:41.421Z,1.69
2018-12-20T08:01:41.375Z,1.69
2018-12-20T08:02:41.582Z,1.70
2018-12-20T08:03:41.349Z,1.66
2018-12-20T08:04:41.424Z,1.63
2018-12-20T08:05:41.319Z,1.70
2018-12-20T08:06:41.298Z,1.60
2018-12-20T08:07:41.277Z,1.72
2018-12-20T08:08:41.260Z,1.73
2018-12-20T08:09:41.237Z,1.68
2018-12-20T08:10:41.226Z,1.76
2018-12-20T08:11:41.204Z,1.86
2018-12-20T08:12:41.186Z,1.83
2018-12-20T08:13:41.168Z,1.91
2018-12-20T08:14:41.148Z,1.91
2018-12-20T08:15:41.128Z,1.95
2018-12-20T08:16:45.971Z,2.07
2018-12-20T08:17:41.098Z,2.14
2018-12-20T08:18:41.075Z,2.27
2018-12-20T08:19:41.065Z,2.35
2018-12-20T08:20:41.045Z,2.28
2018-12-20T08:21:41.024Z,2.41
2018-12-20T08:22:41.008Z,2.52
2018-12-20T08:23:40.992Z,2.56
2018-12-20T08:24:40.969Z,2.56
2018-12-20T08:25:40.958Z,2.63
2018-12-20T08:26:40.935Z,2.66
2018-12-20T08:27:40.931Z,2.66
2018-12-20T08:28:40.894Z,2.66
2018-12-20T08:29:40.882Z,2.71
2018-12-20T08:30:40.858Z,2.74
2018-12-20T08:31:40.843Z,2.75
2018-12-20T08:32:40.827Z,2.77
2018-12-20T08:33:40.811Z,2.87
2018-12-20T08:34:40.822Z,2.85
2018-12-20T08:35:40.789Z,2.89
2018-12-20T08:36:40.758Z,2.78
2018-12-20T08:37:40.746Z,2.87
2018-12-20T08:38:40.721Z,2.84
2018-12-20T08:39:40.713Z,2.84
2018-12-20T08:40:40.686Z,2.82
2018-12-20T08:41:40.672Z,2.85
2018-12-20T08:42:40.655Z,2.85
2018-12-20T08:43:40.651Z,2.87
2018-12-20T08:44:40.623Z,2.82
2018-12-20T08:45:40.605Z,3.00
2018-12-20T08:46:40.581Z,3.02
2018-12-20T08:47:40.561Z,3.02
2018-12-20T08:48:40.557Z,3.08
2018-12-20T08:49:40.534Z,3.10
2018-12-20T08:50:40.518Z,3.08
2018-12-20T08:51:40.496Z,3.10
2018-12-20T08:52:40.482Z,3.06
2018-12-20T08:53:40.457Z,3.10
2018-12-20T08:54:40.449Z,2.99
2018-12-20T08:55:40.430Z,3.06
2018-12-20T08:56:40.408Z,3.13
2018-12-20T08:57:40.389Z,3.08
2018-12-20T08:58:40.379Z,3.10
2018-12-20T08:59:40.356Z,3.08
2018-12-20T09:00:40.339Z,2.99
2018-12-20T09:01:40.322Z,3.00
2018-12-20T09:02:40.314Z,3.02
2018-12-20T09:03:40.284Z,3.03
2018-12-20T09:04:40.280Z,3.05
2018-12-20T09:05:40.254Z,3.18
2018-12-20T09:06:40.232Z,3.20
2018-12-20T09:07:40.247Z,3.17
2018-12-20T09:08:40.197Z,3.24
2018-12-20T09:09:40.182Z,3.36
2018-12-20T09:10:40.168Z,3.43
2018-12-20T09:11:40.147Z,3.45
2018-12-20T09:12:40.135Z,3.43
2018-12-20T09:13:40.119Z,3.48
2018-12-20T09:14:40.101Z,3.48
2018-12-20T09:15:40.084Z,3.40
2018-12-20T09:16:40.064Z,3.55
2018-12-20T09:17:40.045Z,3.58
2018-12-20T09:18:40.030Z,3.66
2018-12-20T09:19:40.019Z,3.61
2018-12-20T09:20:40.001Z,3.52
2018-12-20T09:21:39.974Z,3.50
2018-12-20T09:22:39.959Z,3.39
2018-12-20T09:23:39.943Z,3.20
2018-12-20T09:24:39.932Z,3.21
2018-12-20T09:25:39.914Z,2.97
2018-12-20T09:26:39.892Z,2.96
2018-12-20T09:27:39.871Z,2.90
2018-12-20T09:28:39.860Z,2.87
2018-12-20T09:29:39.834Z,2.96
2018-12-20T09:30:39.831Z,3.05
2018-12-20T09:31:39.807Z,3.14
2018-12-20T09:32:39.784Z,3.26
2018-12-20T09:33:39.773Z,3.36
2018-12-20T09:34:39.766Z,3.54
2018-12-20T09:35:39.741Z,3.66
2018-12-20T09:36:39.725Z,3.70
2018-12-20T09:37:39.704Z,3.90
2018-12-20T09:38:39.686Z,3.98
2018-12-20T09:39:39.672Z,4.11
2018-12-20T09:40:39.652Z,4.32
2018-12-20T09:41:39.641Z,4.54
2018-12-20T09:42:39.620Z,4.72
2018-12-20T09:43:39.600Z,4.99
2018-12-20T09:44:39.588Z,5.27
2018-12-20T09:45:39.624Z,5.60
2018-12-20T09:46:39.692Z,5.78
2018-12-20T09:47:39.547Z,6.00
2018-12-20T09:48:39.524Z,6.33
2018-12-20T09:49:39.501Z,6.64
2018-12-20T09:50:39.489Z,6.87
2018-12-20T09:51:39.475Z,6.97
2018-12-20T09:52:39.452Z,7.20
2018-12-20T09:53:39.435Z,7.39
2018-12-20T09:54:39.420Z,7.68
2018-12-20T09:55:39.412Z,7.85
2018-12-20T09:56:39.391Z,8.01
2018-12-20T09:57:39.379Z,8.15
2018-12-20T09:58:39.357Z,8.16
2018-12-20T09:59:39.344Z,8.33
2018-12-20T10:00:39.325Z,8.28
2018-12-20T10:01:39.307Z,8.28
2018-12-20T10:02:39.295Z,8.30
2018-12-20T10:03:39.283Z,8.37
2018-12-20T10:04:39.264Z,8.30
2018-12-20T10:05:39.261Z,8.25
2018-12-20T10:06:39.237Z,7.80
2018-12-20T10:07:39.218Z,7.53
2018-12-20T10:08:39.196Z,7.34
2018-12-20T10:09:39.187Z,7.17
2018-12-20T10:10:39.172Z,7.15
2018-12-20T10:11:39.168Z,6.98
2018-12-20T10:12:39.141Z,6.77
2018-12-20T10:13:39.125Z,6.71
2018-12-20T10:14:39.119Z,6.62
2018-12-20T10:15:39.130Z,6.48
2018-12-20T10:16:39.087Z,6.41
2018-12-20T10:17:39.067Z,6.49
2018-12-20T10:18:39.059Z,6.70
2018-12-20T10:19:39.036Z,6.94
2018-12-20T10:20:39.028Z,7.21
2018-12-20T10:21:39.021Z,7.27
2018-12-20T10:22:38.990Z,7.40
2018-12-20T10:23:38.994Z,7.37
2018-12-20T10:24:38.979Z,7.34
2018-12-20T10:25:38.946Z,7.48
2018-12-20T10:26:38.932Z,7.34
2018-12-20T10:27:38.920Z,7.31
2018-12-20T10:28:38.907Z,7.23
2018-12-20T10:29:38.916Z,7.30
2018-12-20T10:30:38.875Z,7.39
2018-12-20T10:31:38.859Z,7.35
2018-12-20T10:32:38.850Z,7.28
2018-12-20T10:33:38.833Z,7.23
2018-12-20T10:34:38.812Z,7.09
2018-12-20T10:35:38.803Z,7.27
2018-12-20T10:36:38.786Z,7.50
2018-12-20T10:37:38.772Z,7.53
2018-12-20T10:38:38.761Z,7.53
2018-12-20T10:39:38.744Z,7.50
2018-12-20T10:40:38.728Z,7.50
2018-12-20T10:41:38.714Z,7.48
2018-12-20T10:42:38.706Z,7.49
2018-12-20T10:43:38.687Z,7.32
2018-12-20T10:44:38.671Z,7.45
2018-12-20T10:45:38.671Z,7.68
2018-12-20T10:46:38.641Z,7.83
2018-12-20T10:47:38.631Z,7.89
2018-12-20T10:48:38.621Z,8.04
2018-12-20T10:49:38.602Z,8.16
2018-12-20T10:50:38.599Z,8.12
2018-12-20T10:51:38.573Z,8.23
2018-12-20T10:52:38.566Z,8.25
2018-12-20T10:53:38.545Z,8.33
2018-12-20T10:54:38.527Z,8.43
2018-12-20T10:55:38.516Z,8.52
2018-12-20T10:56:38.693Z,8.86
2018-12-20T10:57:38.484Z,9.13
2018-12-20T10:58:38.466Z,9.38
2018-12-20T10:59:38.459Z,9.46
2018-12-20T11:00:38.446Z,9.64
2018-12-20T11:01:38.428Z,9.76
2018-12-20T11:02:38.416Z,9.83
2018-12-20T11:03:38.406Z,9.96
2018-12-20T11:04:38.392Z,9.93
2018-12-20T11:05:38.454Z,9.57
2018-12-20T11:06:38.362Z,9.20
2018-12-20T11:07:38.345Z,8.96
2018-12-20T11:08:38.336Z,8.62
2018-12-20T11:09:38.317Z,8.53
2018-12-20T11:10:38.305Z,8.41
2018-12-20T11:11:38.293Z,8.50
2018-12-20T11:12:38.325Z,8.71
2018-12-20T11:13:38.274Z,8.92
2018-12-20T11:14:38.258Z,9.08
2018-12-20T11:15:38.244Z,9.23
2018-12-20T11:16:38.223Z,9.14
2018-12-20T11:17:38.230Z,9.17
2018-12-20T11:18:38.212Z,9.05
2018-12-20T11:19:38.194Z,9.02
2018-12-20T11:20:38.166Z,8.92
2018-12-20T11:21:38.159Z,8.99
2018-12-20T11:22:38.149Z,8.89
2018-12-20T11:23:38.140Z,8.71
2018-12-20T11:24:38.117Z,8.47
2018-12-20T11:25:38.106Z,8.40
2018-12-20T11:26:38.089Z,8.62
2018-12-20T11:27:38.083Z,8.40
2018-12-20T11:28:38.069Z,8.37
2018-12-20T11:29:38.058Z,8.59
2018-12-20T11:30:38.046Z,8.59
2018-12-20T11:31:38.024Z,8.63
2018-12-20T11:32:38.014Z,8.50
2018-12-20T11:33:38.006Z,8.74
2018-12-20T11:34:37.991Z,8.81
2018-12-20T11:35:37.988Z,8.52
2018-12-20T11:36:37.957Z,8.41
2018-12-20T11:37:37.949Z,8.26
2018-12-20T11:38:37.945Z,8.33
2018-12-20T11:39:37.915Z,8.37
2018-12-20T11:40:37.906Z,8.28
2018-12-20T11:41:38.010Z,8.28
2018-12-20T11:42:37.883Z,8.40
2018-12-20T11:43:37.874Z,8.43
2018-12-20T11:44:37.856Z,8.61
2018-12-20T11:45:37.842Z,8.68
2018-12-20T11:46:37.826Z,8.92
2018-12-20T11:47:45.680Z,9.15
2018-12-20T11:48:37.800Z,9.10
2018-12-20T11:49:37.795Z,8.99
2018-12-20T11:50:37.769Z,8.92
2018-12-20T11:51:37.768Z,8.87
2018-12-20T11:52:42.286Z,8.79
2018-12-20T11:53:37.740Z,8.89
2018-12-20T11:54:37.723Z,9.24
2018-12-20T11:55:37.752Z,9.24
2018-12-20T11:56:37.717Z,9.01
2018-12-20T11:57:37.683Z,9.04
2018-12-20T11:58:37.678Z,8.96
2018-12-20T11:59:37.658Z,9.17
2018-12-20T12:00:37.648Z,9.43
2018-12-20T12:01:37.631Z,9.71
2018-12-20T12:02:37.620Z,9.86
2018-12-20T12:03:38.595Z,10.11
2018-12-20T12:04:37.596Z,10.09
2018-12-20T12:05:37.576Z,10.22
2018-12-20T12:06:37.608Z,10.29
2018-12-20T12:07:37.560Z,10.14
2018-12-20T12:08:37.538Z,9.96
2018-12-20T12:09:37.530Z,9.84
2018-12-20T12:10:37.521Z,9.65
2018-12-20T12:11:37.502Z,9.46
2018-12-20T12:12:37.489Z,9.47
2018-12-20T12:13:37.481Z,9.48
2018-12-20T12:14:37.461Z,9.39
2018-12-20T12:15:37.443Z,9.56
2018-12-20T12:16:37.433Z,9.40
2018-12-20T12:17:37.425Z,9.47
2018-12-20T12:18:37.411Z,9.53
2018-12-20T12:19:37.415Z,9.48
2018-12-20T12:20:37.395Z,9.42
2018-12-20T12:21:37.378Z,9.33
2018-12-20T12:22:37.364Z,9.42
2018-12-20T12:23:37.344Z,9.50
2018-12-20T12:24:37.338Z,9.60
2018-12-20T12:25:37.329Z,9.89
2018-12-20T12:26:37.312Z,9.91
2018-12-20T12:27:37.322Z,9.97
2018-12-20T12:28:37.283Z,10.17
2018-12-20T12:29:37.277Z,10.29
2018-12-20T12:30:37.263Z,10.22
2018-12-20T12:31:37.243Z,9.96
2018-12-20T12:32:37.250Z,9.99
2018-12-20T12:33:37.224Z,9.79
2018-12-20T12:34:37.207Z,9.79
2018-12-20T12:35:37.195Z,9.76
2018-12-20T12:36:37.192Z,9.69
2018-12-20T12:37:37.172Z,9.39
2018-12-20T12:38:37.182Z,9.20
2018-12-20T12:39:37.148Z,9.01
2018-12-20T12:40:37.138Z,8.98
2018-12-20T12:41:37.122Z,8.77
2018-12-20T12:42:37.110Z,8.77
2018-12-20T12:43:37.098Z,8.56
2018-12-20T12:44:37.083Z,8.66
2018-12-20T12:45:37.073Z,8.92
2018-12-20T12:46:37.066Z,8.96
2018-12-20T12:47:37.045Z,9.15
2018-12-20T12:48:37.043Z,9.13
2018-12-20T12:49:37.029Z,8.98
2018-12-20T12:50:37.010Z,8.87
2018-12-20T12:51:37.005Z,8.71
2018-12-20T12:52:36.984Z,8.58
2018-12-20T12:53:36.966Z,8.28
2018-12-20T12:54:36.964Z,8.34
2018-12-20T12:55:36.941Z,8.05
2018-12-20T12:56:36.936Z,8.02
2018-12-20T12:57:36.918Z,8.08
2018-12-20T12:58:36.908Z,7.97
2018-12-20T12:59:37.007Z,7.98
2018-12-20T13:00:36.875Z,8.02
2018-12-20T13:01:36.869Z,8.34
2018-12-20T13:02:36.857Z,8.56
2018-12-20T13:03:36.839Z,8.70
2018-12-20T13:04:36.833Z,9.01
2018-12-20T13:05:36.817Z,8.89
2018-12-20T13:06:36.801Z,8.52
2018-12-20T13:07:36.791Z,8.11
2018-12-20T13:08:36.774Z,7.77
2018-12-20T13:09:36.763Z,7.25
2018-12-20T13:10:36.751Z,6.99
2018-12-20T13:11:36.737Z,6.97
2018-12-20T13:12:36.717Z,7.06
2018-12-20T13:13:36.707Z,6.99
2018-12-20T13:14:36.697Z,7.17
2018-12-20T13:15:36.679Z,7.16
2018-12-20T13:16:36.666Z,7.35
2018-12-20T13:17:36.652Z,7.46
2018-12-20T13:18:36.642Z,7.46
2018-12-20T13:19:36.636Z,7.71
2018-12-20T13:20:36.611Z,7.58
2018-12-20T13:21:36.598Z,7.53
2018-12-20T13:22:36.585Z,7.55
2018-12-20T13:23:36.575Z,7.20
2018-12-20T13:24:36.559Z,6.97
2018-12-20T13:25:36.546Z,6.74
2018-12-20T13:26:36.531Z,6.61
2018-12-20T13:27:36.537Z,6.55
2018-12-20T13:28:36.499Z,6.52
2018-12-20T13:29:36.490Z,6.31
2018-12-20T13:30:36.474Z,6.18
2018-12-20T13:31:36.462Z,6.01
2018-12-20T13:32:36.445Z,5.89
2018-12-20T13:33:36.430Z,5.79